Time;durP1;ratioP1;P1;durP2;ratioP2;P2;SDS_P1;SDS_P2;PMS_P1;PMS_P2;Temp;Humidity;BMP_temperature;BMP_pressure;BME280_temperature;BME280_humidity;BME280_pressure;Samples;Min_cycle;Max_cycle;Signal;HPM_P1;HPM_P2
2022/06/20 15:22:29;;;;;;;14.77;13.20;;;53.30;19.80;;;41.70;18.27;95063.84;5056930;28;20389;-49
2022/06/20 15:25:24;;;;;;;16.45;15.18;;;53.30;18.00;;;41.86;17.91;95063.34;5036250;28;20056;-50
2022/06/20 15:27:56;;;;;;;15.88;14.48;;;54.50;16.80;;;42.05;18.01;95056.31;4984289;28;26691;-51
2022/06/20 15:31:01;;;;;;;15.60;14.32;;;55.40;15.80;;;41.87;17.89;95055.72;5008302;28;20029;-54
2022/06/20 15:33:30;;;;;;;17.63;16.52;;;56.20;15.30;;;41.96;17.75;95056.44;4990515;28;20084;-50
2022/06/20 15:36:36;;;;;;;18.48;17.27;;;56.80;14.60;;;41.57;17.96;95058.53;5009020;28;20108;-56
2022/06/20 15:40:15;;;;;;;19.95;18.60;;;57.30;14.30;;;41.93;18.11;95054.59;5007299;28;20028;-56
2022/06/20 15:43:06;;;;;;;;;;;57.70;14.10;;;41.79;18.01;95058.16;4972542;28;20042;-55
2022/06/20 15:45:50;;;;;;;11.65;10.52;;;57.00;14.40;;;40.71;18.02;95048.94;4978563;28;19912;-50
2022/06/20 15:48:45;;;;;;;12.00;9.88;;;54.80;14.50;;;39.89;18.93;95059.19;5021284;28;20049;-50
2022/06/20 15:51:40;;;;;;;10.32;9.18;;;53.50;14.70;;;40.04;19.31;95050.19;5004898;28;20121;-52
2022/06/20 15:55:01;;;;;;;12.63;11.43;;;53.60;14.70;;;40.60;18.85;95052.28;5007270;28;20029;-55
2022/06/20 15:58:08;;;;;;;13.63;12.65;;;54.20;14.50;;;40.48;19.07;95056.81;5008195;28;20083;-51
2022/06/20 16:00:44;;;;;;;14.00;12.32;;;55.00;14.20;;;40.95;18.57;95056.53;5006867;28;20079;-51
2022/06/20 16:03:48;;;;;;;14.73;13.70;;;55.60;14.00;;;40.64;18.37;95061.22;5008318;28;20503;-54
2022/06/20 16:06:47;;;;;;;15.00;13.57;;;56.00;13.70;;;40.61;18.12;95059.38;5008118;28;20029;-54
2022/06/20 16:09:40;;;;;;;16.02;14.93;;;56.30;13.50;;;40.90;18.61;95057.97;5007982;28;20026;-49
2022/06/20 16:12:24;;;;;;;16.38;15.10;;;56.60;13.30;;;40.62;18.27;95068.56;5006992;28;20022;-50
2022/06/20 16:15:15;;;;;;;17.13;15.65;;;56.80;13.20;;;40.26;18.95;95063.91;4990478;28;20028;-53
2022/06/20 16:17:51;;;;;;;15.20;13.98;;;56.90;13.10;;;40.45;18.50;95070.94;5006781;28;20033;-48
2022/06/20 16:20:37;;;;;;;15.45;14.23;;;56.90;12.90;;;40.28;18.94;95061.44;5022635;28;20053;-50
2022/06/20 16:23:43;;;;;;;15.15;14.13;;;56.90;12.90;;;40.04;18.89;95059.31;5006606;28;20021;-49
2022/06/20 16:26:47;;;;;;;14.57;13.27;;;57.00;12.80;;;40.73;18.69;95062.44;4992452;28;20038;-51
2022/06/20 16:29:47;;;;;;;16.13;14.77;;;57.20;12.90;;;40.47;19.10;95066.44;5004874;28;20481;-54
2022/06/20 16:32:38;;;;;;;16.45;15.25;;;57.20;12.80;;;40.47;19.18;95074.78;4991104;28;20026;-51
2022/06/20 16:35:26;;;;;;;16.70;15.32;;;57.30;12.80;;;40.19;20.76;95067.81;4975209;28;20032;-55
2022/06/20 16:38:07;;;;;;;17.33;16.00;;;57.40;13.00;;;38.40;24.29;95067.19;4979760;28;20033;-49
2022/06/20 16:41:25;;;;;;;14.60;13.13;;;57.00;13.30;;;37.35;25.87;95075.06;4988224;28;20041;-50
2022/06/20 16:44:39;;;;;;;14.35;13.10;;;56.50;13.60;;;37.12;26.69;95079.06;4990263;28;20048;-52
2022/06/20 16:47:51;;;;;;;12.88;11.68;;;55.90;14.00;;;36.07;27.45;95078.09;4994380;28;20621;-52
2022/06/20 16:50:59;;;;;;;12.70;10.27;;;55.10;14.30;;;35.49;28.74;95091.22;4990163;28;20030;-50
2022/06/20 16:54:16;;;;;;;9.98;9.20;;;54.30;14.70;;;35.46;28.89;95099.19;4987227;28;20068;-50
2022/06/20 16:57:25;;;;;;;13.65;9.40;;;53.40;15.10;;;35.28;29.04;95098.91;4987467;28;20492;-50
2022/06/20 17:00:06;;;;;;;8.90;7.97;;;52.70;15.40;;;34.21;29.94;95098.78;4990577;28;20026;-48
2022/06/20 17:02:54;;;;;;;10.63;6.75;;;52.20;15.60;;;33.69;30.68;95103.03;4989478;28;20022;-53
2022/06/20 17:06:54;;;;;;;11.13;7.75;;;51.70;15.80;;;34.12;30.39;95115.94;4987205;28;20381;-52
2022/06/20 17:09:57;;;;;;;12.50;7.82;;;51.00;16.00;;;33.60;30.82;95111.13;4918257;28;20523;-47
2022/06/20 17:13:11;;;;;;;7.40;6.00;;;50.70;16.30;;;32.99;31.87;95108.69;4990295;28;20017;-48
2022/06/20 17:16:17;;;;;;;8.80;5.75;;;49.70;16.50;;;32.33;33.07;95115.63;4978804;28;20194;-49
2022/06/20 17:19:20;;;;;;;5.72;4.88;;;47.40;17.60;;;31.90;34.16;95121.75;4973501;28;20101;-50
2022/06/20 17:22:01;;;;;;;8.25;5.47;;;44.60;19.20;;;31.06;35.36;95121.09;4985815;28;20084;-49
2022/06/20 17:25:01;;;;;;;8.07;4.85;;;42.30;20.80;;;30.31;36.77;95123.69;4988473;28;20038;-50
2022/06/20 17:28:07;;;;;;;4.95;4.07;;;40.30;22.30;;;29.88;37.73;95121.94;4990149;28;20152;-48
2022/06/20 17:31:36;;;;;;;7.68;4.78;;;38.50;23.70;;;29.38;39.05;95127.63;4990001;28;20044;-48
2022/06/20 17:34:16;;;;;;;7.88;4.30;;;37.10;24.80;;;28.88;39.68;95124.97;4990726;28;20075;-48
2022/06/20 17:37:01;;;;;;;10.73;4.97;;;36.00;26.00;;;28.61;40.09;95135.53;4990096;28;20026;-50
2022/06/20 17:40:13;;;;;;;4.45;3.97;;;35.20;26.70;;;28.24;40.75;95133.94;4990945;28;20026;-48
2022/06/20 17:42:49;;;;;;;13.50;4.78;;;34.40;27.70;;;27.95;41.45;95138.56;4987747;28;20108;-49
2022/06/20 17:46:04;;;;;;;6.22;4.43;;;33.80;28.40;;;27.67;41.95;95134.56;4989152;28;20409;-47
2022/06/20 17:48:56;;;;;;;8.40;4.47;;;33.30;29.10;;;27.49;42.66;95152.06;4990685;28;20025;-50
2022/06/20 17:52:19;;;;;;;6.90;4.35;;;32.80;29.70;;;27.21;42.90;95153.47;4989146;28;20052;-47
2022/06/20 17:55:35;;;;;;;5.45;4.20;;;32.40;30.00;;;27.05;43.25;95156.47;4990517;28;20036;-47
2022/06/20 17:58:06;;;;;;;6.82;4.30;;;32.00;30.70;;;26.96;43.83;95151.34;4989758;28;20425;-47
2022/06/20 18:00:47;;;;;;;8.35;4.75;;;31.70;31.00;;;26.84;44.15;95159.84;4990174;28;20095;-46
2022/06/20 18:03:22;;;;;;;11.07;5.03;;;31.50;31.90;;;26.76;44.08;95158.22;4989154;28;20025;-47
2022/06/20 18:06:04;;;;;;;8.30;4.60;;;31.30;32.30;;;26.69;44.78;95164.41;4990753;28;20067;-47
2022/06/20 18:08:45;;;;;;;8.93;4.10;;;31.20;32.80;;;26.63;44.56;95157.72;4956607;28;23499;-46
2022/06/20 18:11:51;;;;;;;7.22;4.10;;;31.10;33.60;;;26.59;44.38;95158.88;4992055;28;20384;-47
2022/06/20 18:14:26;;;;;;;6.30;4.15;;;31.00;33.30;;;26.63;44.92;95167.88;4990876;28;20047;-46
2022/06/20 18:17:17;;;;;;;9.13;4.35;;;30.90;33.60;;;26.61;44.96;95173.72;4992833;28;20466;-46
2022/06/20 18:20:16;;;;;;;7.28;4.32;;;30.90;34.00;;;26.48;45.17;95175.13;4992278;28;20475;-46
2022/06/20 18:23:23;;;;;;;4.68;3.83;;;30.80;34.10;;;26.32;45.67;95183.53;4993716;28;20389;-45
2022/06/20 18:26:44;;;;;;;7.40;4.53;;;30.80;34.30;;;26.30;45.87;95185.88;5002803;28;20026;-48
2022/06/20 18:29:15;;;;;;;8.02;4.30;;;30.60;34.40;;;26.36;45.86;95189.84;4971806;28;20030;-46
2022/06/20 18:31:52;;;;;;;7.82;4.40;;;30.50;34.70;;;26.29;45.49;95190.56;4982105;28;20030;-46
2022/06/20 18:34:38;;;;;;;4.93;4.22;;;30.50;35.10;;;26.27;45.19;95186.63;4987803;28;20101;-46
2022/06/20 18:37:31;;;;;;;7.63;4.13;;;30.40;35.20;;;26.16;45.64;95193.91;4989103;28;20029;-45
2022/06/20 18:40:20;;;;;;;8.48;3.92;;;30.30;35.30;;;26.05;46.01;95200.06;4992203;28;20030;-45
2022/06/20 18:42:56;;;;;;;6.28;4.47;;;30.10;35.50;;;25.98;45.85;95194.53;5007703;28;20429;-45
2022/06/20 18:45:39;;;;;;;7.85;4.18;;;30.00;35.80;;;25.90;46.39;95189.34;4975085;28;20033;-47
2022/06/20 18:48:39;;;;;;;4.55;3.63;;;29.80;36.00;;;25.76;46.40;95188.00;4975245;28;20432;-47
2022/06/20 18:51:27;;;;;;;6.00;4.00;;;29.70;36.10;;;25.71;46.76;95193.00;4992084;28;20386;-45
2022/06/20 18:54:22;;;;;;;7.15;3.85;;;29.60;36.30;;;25.61;47.14;95208.84;4977024;28;20025;-45
2022/06/20 18:57:19;;;;;;;5.93;4.07;;;29.50;36.70;;;25.50;47.21;95201.69;4992107;28;20383;-45
2022/06/20 19:00:32;;;;;;;8.15;4.03;;;29.30;36.90;;;25.38;47.51;95208.16;4992063;28;20519;-46
2022/06/20 19:03:47;;;;;;;6.32;4.35;;;29.20;37.30;;;25.21;47.54;95206.75;4992174;28;20028;-47
2022/06/20 19:06:46;;;;;;;8.13;4.15;;;29.00;37.30;;;25.01;47.97;95208.78;4992212;28;20389;-45
2022/06/20 19:09:42;;;;;;;5.18;4.20;;;28.90;37.60;;;24.93;48.30;95213.31;4992048;28;20029;-47
2022/06/20 19:13:18;;;;;;;7.07;3.95;;;28.70;37.80;;;24.76;48.51;95213.00;4991993;28;20025;-47
2022/06/20 19:16:18;;;;;;;4.88;3.63;;;28.50;38.00;;;24.56;49.39;95215.81;4991716;28;20026;-45
2022/06/20 19:19:25;;;;;;;6.13;3.90;;;28.30;38.30;;;24.42;49.53;95223.75;4983563;28;20061;-47
2022/06/20 19:22:13;;;;;;;6.82;3.83;;;28.10;38.50;;;24.26;49.50;95221.09;4969786;28;20505;-48
2022/06/20 19:24:52;;;;;;;5.13;3.50;;;28.00;39.00;;;24.14;49.95;95235.66;4983479;28;20040;-46
2022/06/20 19:27:38;;;;;;;7.97;3.67;;;27.90;39.20;;;23.98;50.46;95234.94;4986152;28;20038;-50
2022/06/20 19:30:18;;;;;;;5.25;3.72;;;27.70;39.40;;;23.89;50.68;95237.88;4984628;28;20502;-53
2022/06/20 19:32:55;;;;;;;7.20;3.60;;;27.60;39.70;;;23.83;50.96;95238.53;4985631;28;20026;-49
2022/06/20 19:35:42;;;;;;;8.93;3.90;;;27.40;40.00;;;23.71;51.50;95244.88;4987809;28;20488;-49
2022/06/20 19:38:32;;;;;;;3.97;3.10;;;27.30;40.30;;;23.61;51.85;95254.34;4986184;28;20057;-47
2022/06/20 19:41:07;;;;;;;5.45;3.53;;;27.20;40.50;;;23.49;52.01;95257.19;4980513;28;20424;-48
2022/06/20 19:43:49;;;;;;;7.20;3.30;;;27.10;40.70;;;23.44;52.10;95255.56;4991007;28;20212;-46
2022/06/20 19:46:40;;;;;;;7.60;3.88;;;27.00;41.00;;;23.38;52.37;95264.31;4989412;28;20109;-52
2022/06/20 19:49:54;;;;;;;7.15;3.80;;;26.90;41.20;;;23.26;52.75;95270.66;4989094;28;20030;-48
2022/06/20 19:52:25;;;;;;;;;;;26.80;41.40;;;23.20;52.93;95275.59;4990108;28;20117;-48
2022/06/20 19:55:29;;;;;;;8.38;3.85;;;26.70;40.60;;;23.04;53.64;95274.81;4989898;28;19920;-48
2022/06/20 19:58:09;;;;;;;4.13;3.45;;;26.60;41.30;;;22.92;53.75;95277.59;4988629;28;20080;-49
2022/06/20 20:00:47;;;;;;;6.97;3.60;;;26.50;41.70;;;22.85;53.83;95283.63;5005141;28;20044;-48
2022/06/20 20:03:16;;;;;;;6.03;3.30;;;26.40;41.90;;;22.80;53.86;95286.59;4990394;28;20045;-48
2022/06/20 20:06:08;;;;;;;7.45;4.22;;;26.30;42.10;;;22.73;53.85;95283.72;4990184;28;20056;-46
2022/06/20 20:08:55;;;;;;;6.68;3.78;;;26.20;42.50;;;22.67;54.09;95282.41;5009221;28;20036;-48
2022/06/20 20:11:40;;;;;;;9.45;3.97;;;26.20;42.60;;;22.62;54.61;95288.84;4989211;28;20366;-46
2022/06/20 20:14:22;;;;;;;8.52;4.00;;;26.10;42.80;;;22.62;54.50;95289.63;4972205;28;20156;-49
2022/06/20 20:16:58;;;;;;;9.68;3.58;;;26.10;43.10;;;22.60;54.55;95291.16;4976608;28;20022;-47
2022/06/20 20:19:39;;;;;;;5.43;3.85;;;26.00;43.10;;;22.49;55.13;95300.94;4992740;28;20045;-46
2022/06/20 20:22:19;;;;;;;7.18;3.75;;;25.90;43.30;;;22.36;55.75;95292.84;4977042;28;20041;-46
2022/06/20 20:25:31;;;;;;;9.38;3.85;;;25.90;43.50;;;22.29;55.93;95291.88;4993749;28;20022;-46
2022/06/20 20:28:51;;;;;;;6.60;3.70;;;25.80;43.60;;;22.16;56.40;95296.56;4992408;28;20477;-46
2022/06/20 20:32:05;;;;;;;4.55;3.63;;;25.70;43.80;;;22.11;56.78;95302.97;4981062;28;20109;-49
2022/06/20 20:35:49;;;;;;;5.43;3.78;;;25.60;44.00;;;22.00;57.53;95301.09;4985834;28;20033;-51
2022/06/20 20:39:40;;;;;;;4.95;3.60;;;25.50;44.30;;;21.99;57.46;95302.25;4972990;28;20034;-46
2022/06/20 20:42:41;;;;;;;7.53;3.83;;;25.40;44.20;;;21.97;57.73;95297.16;4948583;28;20457;-47
2022/06/20 20:45:53;;;;;;;10.85;4.43;;;25.40;44.60;;;21.93;58.14;95299.75;4991925;28;20048;-49
2022/06/20 20:48:41;;;;;;;6.10;3.60;;;25.40;45.00;;;21.93;58.24;95298.97;4984915;28;20022;-46
2022/06/20 20:51:26;;;;;;;9.60;3.53;;;25.30;45.20;;;21.91;58.47;95299.34;4991384;28;20029;-46
2022/06/20 20:54:05;;;;;;;8.45;3.90;;;25.30;45.50;;;21.87;58.77;95303.88;4992109;28;20033;-45
2022/06/20 20:57:00;;;;;;;6.63;3.40;;;25.30;45.70;;;21.83;58.97;95304.88;4988416;28;20032;-46
2022/06/20 20:59:56;;;;;;;5.47;3.60;;;25.30;46.00;;;21.80;59.12;95302.84;4988189;28;20103;-46
2022/06/20 21:02:32;;;;;;;8.07;3.90;;;25.20;46.00;;;21.74;59.33;95306.94;4981672;28;20061;-46
2022/06/20 21:05:19;;;;;;;5.78;3.63;;;25.20;46.20;;;21.70;59.65;95304.13;4992583;28;20026;-47
2022/06/20 21:07:55;;;;;;;6.05;3.67;;;25.10;46.40;;;21.68;59.73;95303.66;4993415;28;20433;-46
2022/06/20 21:10:42;;;;;;;6.75;3.72;;;25.10;46.50;;;21.64;59.65;95300.84;4972509;28;20065;-46
2022/06/20 21:13:29;;;;;;;5.38;3.25;;;25.10;46.80;;;21.62;60.06;95299.63;4978172;28;20030;-46
2022/06/20 21:16:19;;;;;;;7.85;3.97;;;25.00;46.80;;;21.54;60.33;95308.69;4986548;28;20022;-48
2022/06/20 21:18:45;;;;;;;6.38;3.65;;;25.00;47.00;;;21.52;60.23;95302.78;4989242;28;20032;-46
2022/06/20 21:21:28;;;;;;;7.80;3.90;;;25.00;46.90;;;21.51;60.51;95301.22;4989408;28;20128;-49
2022/06/20 21:24:02;;;;;;;5.90;3.70;;;24.90;47.40;;;21.45;60.52;95301.44;4987029;28;20041;-46
2022/06/20 21:26:36;;;;;;;7.78;3.75;;;24.90;47.50;;;21.37;60.93;95291.53;4982593;28;20030;-51
2022/06/20 21:29:14;;;;;;;6.05;3.45;;;24.90;47.70;;;21.37;60.85;95290.72;4972329;28;20105;-51
2022/06/20 21:31:55;;;;;;;10.07;3.63;;;24.80;47.80;;;21.33;61.28;95292.50;4989268;28;20536;-50
2022/06/20 21:35:00;;;;;;;7.90;3.53;;;24.80;47.90;;;21.24;61.33;95293.41;5006423;28;20484;-49
2022/06/20 21:37:31;;;;;;;7.40;3.65;;;24.80;48.00;;;21.23;61.25;95291.84;4989861;28;20021;-49
2022/06/20 21:40:22;;;;;;;8.98;3.78;;;24.70;48.00;;;21.22;61.22;95284.06;4992096;28;20022;-47
2022/06/20 21:42:59;;;;;;;5.97;3.42;;;24.70;48.20;;;21.22;61.16;95286.78;4976309;28;20030;-49
2022/06/20 21:45:43;;;;;;;8.23;3.92;;;24.70;48.30;;;21.23;61.01;95285.66;4982766;28;20021;-48
2022/06/20 21:48:22;;;;;;;8.60;3.50;;;24.60;48.40;;;21.16;61.27;95282.72;4976313;28;20036;-48
2022/06/20 21:51:14;;;;;;;10.20;3.65;;;24.60;48.50;;;21.16;61.45;95280.00;4993131;28;20029;-49
2022/06/20 21:54:30;;;;;;;8.02;3.83;;;24.60;48.60;;;21.08;61.58;95268.16;4993236;28;20029;-48
2022/06/20 21:57:23;;;;;;;5.25;3.85;;;24.50;48.70;;;21.06;61.41;95273.13;4992457;28;20120;-48
2022/06/20 22:00:08;;;;;;;5.97;4.32;;;24.50;48.70;;;21.02;61.75;95273.00;4988177;28;20395;-51
2022/06/20 22:05:32;;;;;;;6.90;3.97;;;24.40;48.70;;;20.95;62.10;95261.16;4991413;28;20079;-49
2022/06/20 22:08:35;;;;;;;4.93;3.50;;;24.40;49.60;;;20.92;61.98;95264.56;4992868;28;20542;-52
2022/06/20 22:11:25;;;;;;;6.30;3.85;;;24.30;49.30;;;20.90;62.16;95255.97;4991545;28;20122;-48
2022/06/20 22:14:13;;;;;;;6.88;3.55;;;24.30;49.10;;;20.84;62.50;95268.97;4991523;28;20113;-48
